sensor_id;sensor_type;location;lat;lon;timestamp;P1;durP1;ratioP1;P2;durP2;ratioP2
23702;SDS011;12030;50.376;8.762;2024-03-17T00:01:12;2.77;;;2.10;;
23702;SDS011;12030;50.376;8.762;2024-03-17T00:03:38;3.90;;;2.63;;
23702;SDS011;12030;50.376;8.762;2024-03-17T00:06:03;4.27;;;2.30;;
23702;SDS011;12030;50.376;8.762;2024-03-17T00:08:29;3.23;;;2.03;;
23702;SDS011;12030;50.376;8.762;2024-03-17T00:10:56;4.47;;;3.10;;
23702;SDS011;12030;50.376;8.762;2024-03-17T00:13:22;2.97;;;2.20;;
23702;SDS011;12030;50.376;8.762;2024-03-17T00:15:49;2.23;;;1.80;;
23702;SDS011;12030;50.376;8.762;2024-03-17T00:18:15;2.70;;;1.87;;
23702;SDS011;12030;50.376;8.762;2024-03-17T00:20:41;2.27;;;1.70;;
23702;SDS011;12030;50.376;8.762;2024-03-17T00:23:07;3.47;;;1.70;;
23702;SDS011;12030;50.376;8.762;2024-03-17T00:25:34;1.63;;;1.53;;
23702;SDS011;12030;50.376;8.762;2024-03-17T00:28:00;4.10;;;2.00;;
23702;SDS011;12030;50.376;8.762;2024-03-17T00:30:27;2.00;;;1.63;;
23702;SDS011;12030;50.376;8.762;2024-03-17T00:32:52;3.83;;;2.03;;
23702;SDS011;12030;50.376;8.762;2024-03-17T00:35:18;2.00;;;1.80;;
23702;SDS011;12030;50.376;8.762;2024-03-17T00:37:47;3.60;;;2.50;;
23702;SDS011;12030;50.376;8.762;2024-03-17T00:40:13;4.13;;;2.47;;
23702;SDS011;12030;50.376;8.762;2024-03-17T00:42:39;2.83;;;2.23;;
23702;SDS011;12030;50.376;8.762;2024-03-17T00:45:06;4.13;;;2.07;;
23702;SDS011;12030;50.376;8.762;2024-03-17T00:47:32;3.80;;;2.00;;
23702;SDS011;12030;50.376;8.762;2024-03-17T00:49:58;2.20;;;2.00;;
23702;SDS011;12030;50.376;8.762;2024-03-17T00:52:24;2.77;;;2.23;;
23702;SDS011;12030;50.376;8.762;2024-03-17T00:54:49;3.80;;;2.03;;
23702;SDS011;12030;50.376;8.762;2024-03-17T00:57:15;3.60;;;2.27;;
23702;SDS011;12030;50.376;8.762;2024-03-17T00:59:41;4.03;;;2.60;;
23702;SDS011;12030;50.376;8.762;2024-03-17T01:02:09;3.17;;;2.50;;
23702;SDS011;12030;50.376;8.762;2024-03-17T01:04:37;2.67;;;2.47;;
23702;SDS011;12030;50.376;8.762;2024-03-17T01:07:02;2.37;;;2.17;;
23702;SDS011;12030;50.376;8.762;2024-03-17T01:09:29;3.97;;;2.20;;
23702;SDS011;12030;50.376;8.762;2024-03-17T01:11:54;2.37;;;1.90;;
23702;SDS011;12030;50.376;8.762;2024-03-17T01:14:20;3.23;;;2.37;;
23702;SDS011;12030;50.376;8.762;2024-03-17T01:16:46;3.87;;;2.00;;
23702;SDS011;12030;50.376;8.762;2024-03-17T01:19:11;3.00;;;2.30;;
23702;SDS011;12030;50.376;8.762;2024-03-17T01:21:37;2.77;;;2.37;;
23702;SDS011;12030;50.376;8.762;2024-03-17T01:24:02;2.63;;;2.30;;
23702;SDS011;12030;50.376;8.762;2024-03-17T01:26:28;6.57;;;2.17;;
23702;SDS011;12030;50.376;8.762;2024-03-17T01:28:53;3.97;;;2.30;;
23702;SDS011;12030;50.376;8.762;2024-03-17T01:31:19;1.97;;;1.67;;
23702;SDS011;12030;50.376;8.762;2024-03-17T01:33:45;2.17;;;1.97;;
23702;SDS011;12030;50.376;8.762;2024-03-17T01:36:11;1.93;;;1.70;;
23702;SDS011;12030;50.376;8.762;2024-03-17T01:38:37;2.30;;;2.03;;
23702;SDS011;12030;50.376;8.762;2024-03-17T01:41:03;2.03;;;1.83;;
23702;SDS011;12030;50.376;8.762;2024-03-17T01:43:29;2.47;;;2.20;;
23702;SDS011;12030;50.376;8.762;2024-03-17T01:45:55;1.77;;;1.60;;
23702;SDS011;12030;50.376;8.762;2024-03-17T01:48:23;2.27;;;2.00;;
23702;SDS011;12030;50.376;8.762;2024-03-17T01:50:49;2.47;;;2.10;;
23702;SDS011;12030;50.376;8.762;2024-03-17T01:53:18;3.20;;;1.60;;
23702;SDS011;12030;50.376;8.762;2024-03-17T01:55:45;5.30;;;2.40;;
23702;SDS011;12030;50.376;8.762;2024-03-17T01:58:12;2.17;;;1.97;;
23702;SDS011;12030;50.376;8.762;2024-03-17T02:00:38;3.10;;;2.27;;
23702;SDS011;12030;50.376;8.762;2024-03-17T02:03:05;5.67;;;2.17;;
23702;SDS011;12030;50.376;8.762;2024-03-17T02:05:31;3.10;;;2.47;;
23702;SDS011;12030;50.376;8.762;2024-03-17T02:07:58;3.17;;;2.20;;
23702;SDS011;12030;50.376;8.762;2024-03-17T02:10:24;4.63;;;2.30;;
23702;SDS011;12030;50.376;8.762;2024-03-17T02:12:50;2.80;;;2.40;;
23702;SDS011;12030;50.376;8.762;2024-03-17T02:15:16;2.80;;;2.53;;
23702;SDS011;12030;50.376;8.762;2024-03-17T02:17:41;2.80;;;2.50;;
23702;SDS011;12030;50.376;8.762;2024-03-17T02:20:07;5.10;;;2.40;;
23702;SDS011;12030;50.376;8.762;2024-03-17T02:22:36;2.90;;;2.53;;
23702;SDS011;12030;50.376;8.762;2024-03-17T02:25:02;3.43;;;2.37;;
23702;SDS011;12030;50.376;8.762;2024-03-17T02:27:28;3.00;;;2.60;;
23702;SDS011;12030;50.376;8.762;2024-03-17T02:29:54;2.90;;;2.57;;
23702;SDS011;12030;50.376;8.762;2024-03-17T02:32:20;2.70;;;2.50;;
23702;SDS011;12030;50.376;8.762;2024-03-17T02:34:47;2.50;;;2.30;;
23702;SDS011;12030;50.376;8.762;2024-03-17T02:37:13;2.77;;;2.50;;
23702;SDS011;12030;50.376;8.762;2024-03-17T02:39:39;2.57;;;2.37;;
23702;SDS011;12030;50.376;8.762;2024-03-17T02:42:05;3.73;;;2.33;;
23702;SDS011;12030;50.376;8.762;2024-03-17T02:44:33;2.50;;;2.10;;
23702;SDS011;12030;50.376;8.762;2024-03-17T02:46:59;3.40;;;2.80;;
23702;SDS011;12030;50.376;8.762;2024-03-17T02:49:25;2.93;;;2.43;;
23702;SDS011;12030;50.376;8.762;2024-03-17T02:51:55;3.00;;;2.17;;
23702;SDS011;12030;50.376;8.762;2024-03-17T02:54:21;3.30;;;2.63;;
23702;SDS011;12030;50.376;8.762;2024-03-17T02:56:48;3.77;;;2.17;;
23702;SDS011;12030;50.376;8.762;2024-03-17T02:59:14;2.27;;;2.07;;
23702;SDS011;12030;50.376;8.762;2024-03-17T03:01:39;3.77;;;2.23;;
23702;SDS011;12030;50.376;8.762;2024-03-17T03:04:05;4.60;;;2.40;;
23702;SDS011;12030;50.376;8.762;2024-03-17T03:06:31;2.63;;;2.20;;
23702;SDS011;12030;50.376;8.762;2024-03-17T03:08:58;3.43;;;2.60;;
23702;SDS011;12030;50.376;8.762;2024-03-17T03:11:23;2.00;;;1.80;;
23702;SDS011;12030;50.376;8.762;2024-03-17T03:13:49;9.83;;;1.93;;
23702;SDS011;12030;50.376;8.762;2024-03-17T03:16:14;2.93;;;2.20;;
23702;SDS011;12030;50.376;8.762;2024-03-17T03:18:40;2.20;;;1.97;;
23702;SDS011;12030;50.376;8.762;2024-03-17T03:21:07;3.20;;;2.43;;
23702;SDS011;12030;50.376;8.762;2024-03-17T03:23:32;2.07;;;1.87;;
23702;SDS011;12030;50.376;8.762;2024-03-17T03:25:59;2.23;;;2.00;;
23702;SDS011;12030;50.376;8.762;2024-03-17T03:28:27;3.87;;;1.97;;
23702;SDS011;12030;50.376;8.762;2024-03-17T03:30:55;2.10;;;1.70;;
23702;SDS011;12030;50.376;8.762;2024-03-17T03:33:20;3.07;;;2.23;;
23702;SDS011;12030;50.376;8.762;2024-03-17T03:35:47;2.87;;;2.13;;
23702;SDS011;12030;50.376;8.762;2024-03-17T03:38:13;2.30;;;1.90;;
23702;SDS011;12030;50.376;8.762;2024-03-17T03:40:39;2.40;;;1.80;;
23702;SDS011;12030;50.376;8.762;2024-03-17T03:43:06;2.80;;;2.10;;
23702;SDS011;12030;50.376;8.762;2024-03-17T03:45:33;2.57;;;2.37;;
23702;SDS011;12030;50.376;8.762;2024-03-17T03:48:00;2.50;;;1.87;;
23702;SDS011;12030;50.376;8.762;2024-03-17T03:50:26;4.93;;;2.13;;
23702;SDS011;12030;50.376;8.762;2024-03-17T03:52:51;2.60;;;2.20;;
23702;SDS011;12030;50.376;8.762;2024-03-17T03:55:17;3.27;;;2.30;;
23702;SDS011;12030;50.376;8.762;2024-03-17T03:57:44;3.33;;;1.93;;
23702;SDS011;12030;50.376;8.762;2024-03-17T04:00:16;4.33;;;2.43;;
23702;SDS011;12030;50.376;8.762;2024-03-17T04:02:46;2.53;;;1.93;;
23702;SDS011;12030;50.376;8.762;2024-03-17T04:05:16;6.43;;;2.73;;
23702;SDS011;12030;50.376;8.762;2024-03-17T04:07:42;2.70;;;2.03;;
23702;SDS011;12030;50.376;8.762;2024-03-17T04:10:10;2.60;;;2.30;;
23702;SDS011;12030;50.376;8.762;2024-03-17T04:12:37;2.10;;;1.90;;
23702;SDS011;12030;50.376;8.762;2024-03-17T04:15:03;3.03;;;2.13;;
23702;SDS011;12030;50.376;8.762;2024-03-17T04:17:31;2.60;;;2.27;;
23702;SDS011;12030;50.376;8.762;2024-03-17T04:19:57;3.43;;;2.40;;
23702;SDS011;12030;50.376;8.762;2024-03-17T04:22:23;4.10;;;2.60;;
23702;SDS011;12030;50.376;8.762;2024-03-17T04:24:49;3.00;;;2.20;;
23702;SDS011;12030;50.376;8.762;2024-03-17T04:27:21;4.47;;;2.57;;
23702;SDS011;12030;50.376;8.762;2024-03-17T04:29:51;3.50;;;2.50;;
23702;SDS011;12030;50.376;8.762;2024-03-17T04:32:17;2.27;;;2.07;;
23702;SDS011;12030;50.376;8.762;2024-03-17T04:34:43;2.50;;;2.30;;
23702;SDS011;12030;50.376;8.762;2024-03-17T04:37:09;3.90;;;2.70;;
23702;SDS011;12030;50.376;8.762;2024-03-17T04:39:40;2.40;;;2.20;;
23702;SDS011;12030;50.376;8.762;2024-03-17T04:42:08;2.30;;;2.10;;
23702;SDS011;12030;50.376;8.762;2024-03-17T04:44:37;5.93;;;2.40;;
23702;SDS011;12030;50.376;8.762;2024-03-17T04:47:03;3.80;;;2.47;;
23702;SDS011;12030;50.376;8.762;2024-03-17T04:49:35;2.93;;;2.40;;
23702;SDS011;12030;50.376;8.762;2024-03-17T04:52:01;2.47;;;2.23;;
23702;SDS011;12030;50.376;8.762;2024-03-17T04:54:27;2.60;;;2.37;;
23702;SDS011;12030;50.376;8.762;2024-03-17T04:56:52;3.00;;;2.43;;
23702;SDS011;12030;50.376;8.762;2024-03-17T04:59:18;3.30;;;2.17;;
23702;SDS011;12030;50.376;8.762;2024-03-17T05:01:44;2.73;;;2.47;;
23702;SDS011;12030;50.376;8.762;2024-03-17T05:04:09;4.40;;;2.50;;
23702;SDS011;12030;50.376;8.762;2024-03-17T05:06:35;4.50;;;2.53;;
23702;SDS011;12030;50.376;8.762;2024-03-17T05:09:01;2.73;;;2.47;;
23702;SDS011;12030;50.376;8.762;2024-03-17T05:11:26;3.60;;;2.30;;
23702;SDS011;12030;50.376;8.762;2024-03-17T05:13:52;4.67;;;2.10;;
23702;SDS011;12030;50.376;8.762;2024-03-17T05:16:17;2.30;;;1.90;;
23702;SDS011;12030;50.376;8.762;2024-03-17T05:18:43;2.80;;;2.30;;
23702;SDS011;12030;50.376;8.762;2024-03-17T05:21:08;3.10;;;2.80;;
23702;SDS011;12030;50.376;8.762;2024-03-17T05:23:35;2.40;;;2.20;;
23702;SDS011;12030;50.376;8.762;2024-03-17T05:26:02;2.53;;;2.30;;
23702;SDS011;12030;50.376;8.762;2024-03-17T05:28:29;3.00;;;2.17;;
23702;SDS011;12030;50.376;8.762;2024-03-17T05:30:56;3.53;;;2.10;;
23702;SDS011;12030;50.376;8.762;2024-03-17T05:33:22;2.60;;;2.40;;
23702;SDS011;12030;50.376;8.762;2024-03-17T05:35:52;5.27;;;2.50;;
23702;SDS011;12030;50.376;8.762;2024-03-17T05:38:25;4.20;;;2.70;;
23702;SDS011;12030;50.376;8.762;2024-03-17T05:43:30;3.17;;;2.53;;
23702;SDS011;12030;50.376;8.762;2024-03-17T05:46:03;4.10;;;2.80;;
23702;SDS011;12030;50.376;8.762;2024-03-17T05:48:40;3.17;;;2.20;;
23702;SDS011;12030;50.376;8.762;2024-03-17T05:51:09;3.27;;;2.77;;
23702;SDS011;12030;50.376;8.762;2024-03-17T05:53:36;3.27;;;2.20;;
23702;SDS011;12030;50.376;8.762;2024-03-17T05:56:04;3.50;;;2.57;;
23702;SDS011;12030;50.376;8.762;2024-03-17T05:58:32;3.03;;;2.50;;
23702;SDS011;12030;50.376;8.762;2024-03-17T06:01:01;4.63;;;2.47;;
23702;SDS011;12030;50.376;8.762;2024-03-17T06:03:27;2.70;;;2.50;;
23702;SDS011;12030;50.376;8.762;2024-03-17T06:05:53;2.83;;;2.53;;
23702;SDS011;12030;50.376;8.762;2024-03-17T06:08:19;3.73;;;2.57;;
23702;SDS011;12030;50.376;8.762;2024-03-17T06:10:45;3.43;;;2.77;;
23702;SDS011;12030;50.376;8.762;2024-03-17T06:13:12;4.23;;;2.70;;
23702;SDS011;12030;50.376;8.762;2024-03-17T06:15:41;3.90;;;2.50;;
23702;SDS011;12030;50.376;8.762;2024-03-17T06:18:12;3.50;;;2.40;;
23702;SDS011;12030;50.376;8.762;2024-03-17T06:20:42;4.37;;;2.70;;
23702;SDS011;12030;50.376;8.762;2024-03-17T06:23:12;4.77;;;2.47;;
23702;SDS011;12030;50.376;8.762;2024-03-17T06:28:12;3.40;;;2.90;;
23702;SDS011;12030;50.376;8.762;2024-03-17T06:30:45;3.40;;;2.50;;
23702;SDS011;12030;50.376;8.762;2024-03-17T06:33:18;4.47;;;2.60;;
23702;SDS011;12030;50.376;8.762;2024-03-17T06:35:44;3.50;;;2.17;;
23702;SDS011;12030;50.376;8.762;2024-03-17T06:38:11;2.50;;;2.30;;
23702;SDS011;12030;50.376;8.762;2024-03-17T06:40:37;2.50;;;2.00;;
23702;SDS011;12030;50.376;8.762;2024-03-17T06:43:03;3.03;;;2.73;;
23702;SDS011;12030;50.376;8.762;2024-03-17T06:45:29;2.87;;;2.40;;
23702;SDS011;12030;50.376;8.762;2024-03-17T06:47:54;2.70;;;2.33;;
23702;SDS011;12030;50.376;8.762;2024-03-17T06:50:20;2.80;;;2.03;;
23702;SDS011;12030;50.376;8.762;2024-03-17T06:52:46;3.63;;;2.23;;
23702;SDS011;12030;50.376;8.762;2024-03-17T06:55:12;2.60;;;2.40;;
23702;SDS011;12030;50.376;8.762;2024-03-17T06:57:37;2.57;;;2.37;;
23702;SDS011;12030;50.376;8.762;2024-03-17T07:00:03;2.60;;;2.40;;
23702;SDS011;12030;50.376;8.762;2024-03-17T07:02:30;3.70;;;2.70;;
23702;SDS011;12030;50.376;8.762;2024-03-17T07:04:59;1.93;;;1.83;;
23702;SDS011;12030;50.376;8.762;2024-03-17T07:07:27;3.23;;;2.13;;
23702;SDS011;12030;50.376;8.762;2024-03-17T07:09:53;4.03;;;2.80;;
23702;SDS011;12030;50.376;8.762;2024-03-17T07:12:19;3.97;;;2.83;;
23702;SDS011;12030;50.376;8.762;2024-03-17T07:14:44;3.47;;;2.53;;
23702;SDS011;12030;50.376;8.762;2024-03-17T07:17:10;4.10;;;2.97;;
23702;SDS011;12030;50.376;8.762;2024-03-17T07:19:36;5.37;;;3.10;;
23702;SDS011;12030;50.376;8.762;2024-03-17T07:22:01;5.17;;;3.43;;
23702;SDS011;12030;50.376;8.762;2024-03-17T07:24:28;4.27;;;3.77;;
23702;SDS011;12030;50.376;8.762;2024-03-17T07:26:55;4.60;;;3.40;;
23702;SDS011;12030;50.376;8.762;2024-03-17T07:29:20;4.27;;;3.87;;
23702;SDS011;12030;50.376;8.762;2024-03-17T07:31:46;6.03;;;4.77;;
23702;SDS011;12030;50.376;8.762;2024-03-17T07:34:11;6.20;;;4.87;;
23702;SDS011;12030;50.376;8.762;2024-03-17T07:36:37;8.33;;;5.73;;
23702;SDS011;12030;50.376;8.762;2024-03-17T07:39:04;5.33;;;4.83;;
23702;SDS011;12030;50.376;8.762;2024-03-17T07:41:32;5.93;;;5.30;;
23702;SDS011;12030;50.376;8.762;2024-03-17T07:43:58;7.07;;;5.60;;
23702;SDS011;12030;50.376;8.762;2024-03-17T07:46:23;7.20;;;5.43;;
23702;SDS011;12030;50.376;8.762;2024-03-17T07:48:49;8.17;;;5.33;;
23702;SDS011;12030;50.376;8.762;2024-03-17T07:51:15;6.83;;;5.43;;
23702;SDS011;12030;50.376;8.762;2024-03-17T07:53:45;7.40;;;5.57;;
23702;SDS011;12030;50.376;8.762;2024-03-17T07:56:12;7.27;;;5.13;;
23702;SDS011;12030;50.376;8.762;2024-03-17T07:58:39;6.93;;;5.70;;
23702;SDS011;12030;50.376;8.762;2024-03-17T08:01:06;7.37;;;5.10;;
23702;SDS011;12030;50.376;8.762;2024-03-17T08:03:34;5.33;;;4.77;;
23702;SDS011;12030;50.376;8.762;2024-03-17T08:06:03;5.63;;;4.63;;
23702;SDS011;12030;50.376;8.762;2024-03-17T08:08:30;4.63;;;4.20;;
23702;SDS011;12030;50.376;8.762;2024-03-17T08:10:56;4.83;;;4.30;;
23702;SDS011;12030;50.376;8.762;2024-03-17T08:13:22;5.13;;;4.60;;
23702;SDS011;12030;50.376;8.762;2024-03-17T08:15:55;4.80;;;4.30;;
23702;SDS011;12030;50.376;8.762;2024-03-17T08:18:22;4.60;;;3.80;;
23702;SDS011;12030;50.376;8.762;2024-03-17T08:20:47;5.77;;;4.30;;
23702;SDS011;12030;50.376;8.762;2024-03-17T08:23:13;5.10;;;4.00;;
23702;SDS011;12030;50.376;8.762;2024-03-17T08:25:38;5.67;;;3.90;;
23702;SDS011;12030;50.376;8.762;2024-03-17T08:28:04;3.87;;;3.47;;
23702;SDS011;12030;50.376;8.762;2024-03-17T08:30:32;4.77;;;4.07;;
23702;SDS011;12030;50.376;8.762;2024-03-17T08:32:57;6.10;;;3.97;;
23702;SDS011;12030;50.376;8.762;2024-03-17T08:35:23;4.47;;;3.87;;
23702;SDS011;12030;50.376;8.762;2024-03-17T08:37:49;3.50;;;3.20;;
23702;SDS011;12030;50.376;8.762;2024-03-17T08:40:16;4.40;;;3.30;;
23702;SDS011;12030;50.376;8.762;2024-03-17T08:42:42;3.57;;;2.97;;
23702;SDS011;12030;50.376;8.762;2024-03-17T08:45:08;5.07;;;3.10;;
23702;SDS011;12030;50.376;8.762;2024-03-17T08:47:36;5.10;;;2.70;;
23702;SDS011;12030;50.376;8.762;2024-03-17T08:50:01;3.97;;;2.77;;
23702;SDS011;12030;50.376;8.762;2024-03-17T08:52:29;3.30;;;2.70;;
23702;SDS011;12030;50.376;8.762;2024-03-17T08:54:56;5.80;;;2.80;;
23702;SDS011;12030;50.376;8.762;2024-03-17T08:57:22;3.63;;;2.90;;
23702;SDS011;12030;50.376;8.762;2024-03-17T08:59:48;3.47;;;2.40;;
23702;SDS011;12030;50.376;8.762;2024-03-17T09:02:13;4.13;;;2.70;;
23702;SDS011;12030;50.376;8.762;2024-03-17T09:04:40;2.87;;;2.57;;
23702;SDS011;12030;50.376;8.762;2024-03-17T09:07:06;3.50;;;2.60;;
23702;SDS011;12030;50.376;8.762;2024-03-17T09:09:31;4.13;;;2.77;;
23702;SDS011;12030;50.376;8.762;2024-03-17T09:11:57;4.63;;;2.40;;
23702;SDS011;12030;50.376;8.762;2024-03-17T09:14:23;4.00;;;2.60;;
23702;SDS011;12030;50.376;8.762;2024-03-17T09:16:48;3.10;;;2.47;;
23702;SDS011;12030;50.376;8.762;2024-03-17T09:19:14;3.37;;;2.50;;
23702;SDS011;12030;50.376;8.762;2024-03-17T09:21:40;3.33;;;2.40;;
23702;SDS011;12030;50.376;8.762;2024-03-17T09:24:06;3.50;;;2.63;;
23702;SDS011;12030;50.376;8.762;2024-03-17T09:26:34;4.13;;;2.67;;
23702;SDS011;12030;50.376;8.762;2024-03-17T09:29:01;3.43;;;2.87;;
23702;SDS011;12030;50.376;8.762;2024-03-17T09:31:27;4.23;;;3.13;;
23702;SDS011;12030;50.376;8.762;2024-03-17T09:33:52;3.67;;;3.00;;
23702;SDS011;12030;50.376;8.762;2024-03-17T09:36:18;3.07;;;2.60;;
23702;SDS011;12030;50.376;8.762;2024-03-17T09:38:43;4.20;;;3.20;;
23702;SDS011;12030;50.376;8.762;2024-03-17T09:41:17;4.20;;;2.80;;
23702;SDS011;12030;50.376;8.762;2024-03-17T09:43:47;5.40;;;3.20;;
23702;SDS011;12030;50.376;8.762;2024-03-17T09:46:13;3.60;;;3.30;;
23702;SDS011;12030;50.376;8.762;2024-03-17T09:48:41;4.33;;;2.90;;
23702;SDS011;12030;50.376;8.762;2024-03-17T09:51:08;3.63;;;2.70;;
23702;SDS011;12030;50.376;8.762;2024-03-17T09:53:50;3.60;;;3.10;;
23702;SDS011;12030;50.376;8.762;2024-03-17T09:56:17;3.77;;;2.60;;
23702;SDS011;12030;50.376;8.762;2024-03-17T09:58:46;4.07;;;2.73;;
23702;SDS011;12030;50.376;8.762;2024-03-17T10:01:13;3.57;;;2.93;;
23702;SDS011;12030;50.376;8.762;2024-03-17T10:06:14;3.20;;;2.80;;
23702;SDS011;12030;50.376;8.762;2024-03-17T10:08:47;4.17;;;2.37;;
23702;SDS011;12030;50.376;8.762;2024-03-17T10:11:15;3.67;;;2.77;;
23702;SDS011;12030;50.376;8.762;2024-03-17T10:13:45;4.13;;;2.57;;
23702;SDS011;12030;50.376;8.762;2024-03-17T10:16:26;4.13;;;2.73;;
23702;SDS011;12030;50.376;8.762;2024-03-17T10:19:07;3.47;;;2.70;;
23702;SDS011;12030;50.376;8.762;2024-03-17T10:21:35;4.63;;;2.63;;
23702;SDS011;12030;50.376;8.762;2024-03-17T10:24:08;4.23;;;2.40;;
23702;SDS011;12030;50.376;8.762;2024-03-17T10:26:43;3.57;;;2.53;;
23702;SDS011;12030;50.376;8.762;2024-03-17T10:29:19;3.20;;;2.60;;
23702;SDS011;12030;50.376;8.762;2024-03-17T10:31:56;5.10;;;3.00;;
23702;SDS011;12030;50.376;8.762;2024-03-17T10:34:23;4.20;;;2.70;;
23702;SDS011;12030;50.376;8.762;2024-03-17T10:39:39;4.00;;;3.60;;
23702;SDS011;12030;50.376;8.762;2024-03-17T10:42:06;3.63;;;2.40;;
23702;SDS011;12030;50.376;8.762;2024-03-17T10:44:36;6.80;;;2.77;;
23702;SDS011;12030;50.376;8.762;2024-03-17T10:47:03;3.00;;;2.70;;
23702;SDS011;12030;50.376;8.762;2024-03-17T10:49:35;3.30;;;2.43;;
23702;SDS011;12030;50.376;8.762;2024-03-17T10:52:04;2.63;;;2.23;;
23702;SDS011;12030;50.376;8.762;2024-03-17T10:54:31;2.80;;;2.50;;
23702;SDS011;12030;50.376;8.762;2024-03-17T10:57:10;3.73;;;2.43;;
23702;SDS011;12030;50.376;8.762;2024-03-17T10:59:48;5.40;;;2.97;;
23702;SDS011;12030;50.376;8.762;2024-03-17T11:02:24;4.83;;;2.67;;
23702;SDS011;12030;50.376;8.762;2024-03-17T11:04:54;4.83;;;2.30;;
23702;SDS011;12030;50.376;8.762;2024-03-17T11:07:22;3.93;;;2.30;;
23702;SDS011;12030;50.376;8.762;2024-03-17T11:09:50;2.30;;;2.10;;
23702;SDS011;12030;50.376;8.762;2024-03-17T11:20:33;4.07;;;2.60;;
23702;SDS011;12030;50.376;8.762;2024-03-17T11:23:00;2.57;;;2.27;;
23702;SDS011;12030;50.376;8.762;2024-03-17T11:27:52;3.27;;;2.57;;
23702;SDS011;12030;50.376;8.762;2024-03-17T11:38:55;2.63;;;2.43;;
23702;SDS011;12030;50.376;8.762;2024-03-17T11:47:05;4.20;;;2.47;;
23702;SDS011;12030;50.376;8.762;2024-03-17T11:49:31;3.23;;;2.50;;
23702;SDS011;12030;50.376;8.762;2024-03-17T11:52:13;5.33;;;2.63;;
23702;SDS011;12030;50.376;8.762;2024-03-17T11:54:41;2.60;;;2.33;;
23702;SDS011;12030;50.376;8.762;2024-03-17T11:57:12;5.33;;;3.03;;
23702;SDS011;12030;50.376;8.762;2024-03-17T11:59:39;2.97;;;2.50;;
23702;SDS011;12030;50.376;8.762;2024-03-17T12:02:16;3.23;;;2.50;;
23702;SDS011;12030;50.376;8.762;2024-03-17T12:04:42;3.80;;;3.00;;
23702;SDS011;12030;50.376;8.762;2024-03-17T12:07:11;3.40;;;2.87;;
23702;SDS011;12030;50.376;8.762;2024-03-17T12:09:39;4.27;;;3.07;;
23702;SDS011;12030;50.376;8.762;2024-03-17T12:14:45;3.23;;;2.40;;
23702;SDS011;12030;50.376;8.762;2024-03-17T12:17:13;3.13;;;2.50;;
23702;SDS011;12030;50.376;8.762;2024-03-17T12:19:40;4.40;;;2.93;;
23702;SDS011;12030;50.376;8.762;2024-03-17T12:22:09;4.33;;;2.53;;
23702;SDS011;12030;50.376;8.762;2024-03-17T12:24:42;4.00;;;2.77;;
23702;SDS011;12030;50.376;8.762;2024-03-17T12:27:09;3.73;;;2.80;;
23702;SDS011;12030;50.376;8.762;2024-03-17T12:29:43;3.50;;;2.60;;
23702;SDS011;12030;50.376;8.762;2024-03-17T12:32:11;3.67;;;3.07;;
23702;SDS011;12030;50.376;8.762;2024-03-17T12:34:40;5.10;;;3.53;;
23702;SDS011;12030;50.376;8.762;2024-03-17T12:37:06;3.90;;;2.70;;
23702;SDS011;12030;50.376;8.762;2024-03-17T12:39:32;5.03;;;3.20;;
23702;SDS011;12030;50.376;8.762;2024-03-17T12:42:09;3.83;;;2.90;;
23702;SDS011;12030;50.376;8.762;2024-03-17T12:44:50;6.53;;;3.13;;
23702;SDS011;12030;50.376;8.762;2024-03-17T12:47:26;4.23;;;3.00;;
23702;SDS011;12030;50.376;8.762;2024-03-17T12:49:56;4.33;;;2.70;;
23702;SDS011;12030;50.376;8.762;2024-03-17T12:52:27;4.10;;;3.10;;
23702;SDS011;12030;50.376;8.762;2024-03-17T12:54:59;3.33;;;2.83;;
23702;SDS011;12030;50.376;8.762;2024-03-17T12:57:47;4.43;;;2.90;;
23702;SDS011;12030;50.376;8.762;2024-03-17T13:03:25;3.93;;;2.90;;
23702;SDS011;12030;50.376;8.762;2024-03-17T13:05:56;3.23;;;2.80;;
23702;SDS011;12030;50.376;8.762;2024-03-17T13:08:22;3.47;;;3.07;;
23702;SDS011;12030;50.376;8.762;2024-03-17T13:10:47;3.80;;;2.80;;
23702;SDS011;12030;50.376;8.762;2024-03-17T13:13:13;3.53;;;3.23;;
23702;SDS011;12030;50.376;8.762;2024-03-17T13:15:43;3.00;;;2.70;;
23702;SDS011;12030;50.376;8.762;2024-03-17T13:18:09;4.33;;;2.80;;
23702;SDS011;12030;50.376;8.762;2024-03-17T13:20:40;2.87;;;2.60;;
23702;SDS011;12030;50.376;8.762;2024-03-17T13:23:06;3.47;;;2.60;;
23702;SDS011;12030;50.376;8.762;2024-03-17T13:25:32;3.47;;;2.70;;
23702;SDS011;12030;50.376;8.762;2024-03-17T13:28:01;3.33;;;2.57;;
23702;SDS011;12030;50.376;8.762;2024-03-17T13:30:28;3.50;;;2.70;;
23702;SDS011;12030;50.376;8.762;2024-03-17T13:32:55;3.87;;;2.50;;
23702;SDS011;12030;50.376;8.762;2024-03-17T13:35:23;3.33;;;3.00;;
23702;SDS011;12030;50.376;8.762;2024-03-17T13:37:53;4.17;;;2.63;;
23702;SDS011;12030;50.376;8.762;2024-03-17T13:40:20;4.47;;;2.60;;
23702;SDS011;12030;50.376;8.762;2024-03-17T13:42:46;2.90;;;2.60;;
23702;SDS011;12030;50.376;8.762;2024-03-17T13:45:13;4.70;;;3.00;;
23702;SDS011;12030;50.376;8.762;2024-03-17T13:47:39;5.10;;;2.77;;
23702;SDS011;12030;50.376;8.762;2024-03-17T13:50:06;5.13;;;2.97;;
23702;SDS011;12030;50.376;8.762;2024-03-17T13:52:42;4.77;;;3.47;;
23702;SDS011;12030;50.376;8.762;2024-03-17T13:55:12;5.07;;;3.10;;
23702;SDS011;12030;50.376;8.762;2024-03-17T13:57:45;3.27;;;2.97;;
23702;SDS011;12030;50.376;8.762;2024-03-17T14:00:14;2.70;;;2.33;;
23702;SDS011;12030;50.376;8.762;2024-03-17T14:02:44;4.20;;;3.03;;
23702;SDS011;12030;50.376;8.762;2024-03-17T14:05:18;4.73;;;3.50;;
23702;SDS011;12030;50.376;8.762;2024-03-17T14:07:48;4.53;;;2.70;;
23702;SDS011;12030;50.376;8.762;2024-03-17T14:10:15;3.80;;;2.90;;
23702;SDS011;12030;50.376;8.762;2024-03-17T14:12:42;3.73;;;2.97;;
23702;SDS011;12030;50.376;8.762;2024-03-17T14:15:08;3.70;;;2.90;;
23702;SDS011;12030;50.376;8.762;2024-03-17T14:17:38;3.90;;;2.67;;
23702;SDS011;12030;50.376;8.762;2024-03-17T14:20:05;3.77;;;3.00;;
23702;SDS011;12030;50.376;8.762;2024-03-17T14:22:37;2.73;;;2.50;;
23702;SDS011;12030;50.376;8.762;2024-03-17T14:25:07;4.53;;;2.90;;
23702;SDS011;12030;50.376;8.762;2024-03-17T14:27:35;3.10;;;2.50;;
23702;SDS011;12030;50.376;8.762;2024-03-17T14:30:01;4.17;;;2.80;;
23702;SDS011;12030;50.376;8.762;2024-03-17T14:32:29;3.13;;;2.40;;
23702;SDS011;12030;50.376;8.762;2024-03-17T14:34:54;2.83;;;2.60;;
23702;SDS011;12030;50.376;8.762;2024-03-17T14:37:20;3.60;;;2.60;;
23702;SDS011;12030;50.376;8.762;2024-03-17T14:39:47;5.00;;;2.73;;
23702;SDS011;12030;50.376;8.762;2024-03-17T14:42:13;3.27;;;2.67;;
23702;SDS011;12030;50.376;8.762;2024-03-17T14:44:38;3.90;;;2.70;;
23702;SDS011;12030;50.376;8.762;2024-03-17T14:47:04;3.90;;;3.07;;
23702;SDS011;12030;50.376;8.762;2024-03-17T14:49:30;3.83;;;2.90;;
23702;SDS011;12030;50.376;8.762;2024-03-17T14:51:56;5.60;;;3.10;;
23702;SDS011;12030;50.376;8.762;2024-03-17T14:54:22;4.80;;;3.13;;
23702;SDS011;12030;50.376;8.762;2024-03-17T14:56:47;4.80;;;3.43;;
23702;SDS011;12030;50.376;8.762;2024-03-17T14:59:13;4.70;;;3.50;;
23702;SDS011;12030;50.376;8.762;2024-03-17T15:01:42;3.93;;;2.93;;
23702;SDS011;12030;50.376;8.762;2024-03-17T15:04:07;5.00;;;3.50;;
23702;SDS011;12030;50.376;8.762;2024-03-17T15:06:33;3.63;;;3.10;;
23702;SDS011;12030;50.376;8.762;2024-03-17T15:08:58;4.73;;;3.53;;
23702;SDS011;12030;50.376;8.762;2024-03-17T15:11:24;3.97;;;3.57;;
23702;SDS011;12030;50.376;8.762;2024-03-17T15:13:50;5.13;;;3.20;;
23702;SDS011;12030;50.376;8.762;2024-03-17T15:16:15;3.17;;;2.73;;
23702;SDS011;12030;50.376;8.762;2024-03-17T15:18:41;3.77;;;2.93;;
23702;SDS011;12030;50.376;8.762;2024-03-17T15:21:08;4.47;;;2.87;;
23702;SDS011;12030;50.376;8.762;2024-03-17T15:23:33;4.23;;;2.83;;
23702;SDS011;12030;50.376;8.762;2024-03-17T15:26:00;4.37;;;3.30;;
23702;SDS011;12030;50.376;8.762;2024-03-17T15:28:31;3.77;;;3.40;;
23702;SDS011;12030;50.376;8.762;2024-03-17T15:30:56;4.03;;;2.90;;